Time;durP1;ratioP1;P1;durP2;ratioP2;P2;SDS_P1;SDS_P2;PMS_P1;PMS_P2;Temp;Humidity;BMP_temperature;BMP_pressure;BME280_temperature;BME280_humidity;BME280_pressure;Samples;Min_cycle;Max_cycle;Signal;HPM_P1;HPM_P2
2023/07/16 00:00:58;;;;;;;1.77;1.20;;;26.00;56.60;;;;;;6139012;22;87901;-86
2023/07/16 00:03:23;;;;;;;2.33;1.90;;;26.10;56.80;;;;;;6138983;22;88423;-85
2023/07/16 00:05:52;;;;;;;2.47;1.50;;;26.10;56.70;;;;;;6111623;22;87217;-86
2023/07/16 00:08:17;;;;;;;2.10;1.37;;;26.00;56.80;;;;;;6139574;22;88641;-86
2023/07/16 00:10:43;;;;;;;3.65;1.52;;;26.10;56.80;;;;;;6112751;22;91280;-85
2023/07/16 00:13:08;;;;;;;1.58;1.27;;;26.00;56.80;;;;;;6140179;22;87221;-86
2023/07/16 00:15:34;;;;;;;2.92;1.60;;;26.00;56.90;;;;;;6138911;22;87197;-85
2023/07/16 00:18:00;;;;;;;3.97;1.83;;;26.00;56.90;;;;;;6138254;22;89919;-86
2023/07/16 00:20:25;;;;;;;1.90;1.30;;;26.00;56.90;;;;;;6112002;22;90229;-86
2023/07/16 00:22:52;;;;;;;2.72;1.45;;;26.00;57.00;;;;;;6139280;22;87341;-86
2023/07/16 00:25:17;;;;;;;1.80;1.38;;;26.00;56.90;;;;;;6111109;22;88950;-86
2023/07/16 00:27:43;;;;;;;2.53;1.27;;;26.00;56.90;;;;;;6111056;22;90583;-86
2023/07/16 00:30:09;;;;;;;2.65;1.60;;;26.00;56.90;;;;;;6138080;22;87713;-86
2023/07/16 00:32:35;;;;;;;2.85;1.38;;;26.00;56.90;;;;;;6112820;22;87457;-85
2023/07/16 00:35:01;;;;;;;2.00;1.58;;;25.90;56.80;;;;;;6139095;22;86806;-85
2023/07/16 00:37:27;;;;;;;1.95;1.42;;;25.90;56.80;;;;;;6138405;22;88186;-85
2023/07/16 00:39:53;;;;;;;3.85;1.60;;;26.00;56.70;;;;;;6138278;22;87821;-86
2023/07/16 00:42:19;;;;;;;2.55;1.20;;;25.90;56.80;;;;;;6137939;22;88203;-86
2023/07/16 00:44:44;;;;;;;2.47;1.35;;;25.90;56.80;;;;;;6138494;22;87227;-86
2023/07/16 00:47:11;;;;;;;2.17;1.23;;;25.90;56.50;;;;;;6112343;22;89362;-86
2023/07/16 00:49:37;;;;;;;1.67;1.35;;;25.90;56.80;;;;;;6138139;22;87770;-86
2023/07/16 00:52:04;;;;;;;2.08;1.40;;;25.90;56.80;;;;;;6138972;22;87301;-86
2023/07/16 00:54:31;;;;;;;2.17;1.25;;;25.90;56.70;;;;;;6110322;22;89968;-86
2023/07/16 00:56:57;;;;;;;1.42;1.27;;;25.90;56.80;;;;;;6138134;22;87949;-85
2023/07/16 00:59:22;;;;;;;2.58;0.98;;;25.90;56.80;;;;;;6140301;22;87565;-85
2023/07/16 01:01:48;;;;;;;1.58;1.08;;;25.90;56.70;;;;;;6111143;22;87486;-86
2023/07/16 01:04:14;;;;;;;1.58;1.40;;;25.90;56.90;;;;;;6137695;22;87291;-85
2023/07/16 01:06:49;;;;;;;1.92;1.08;;;25.90;56.80;;;;;;6138113;22;88571;-86
2023/07/16 01:09:19;;;;;;;1.67;1.13;;;25.90;56.80;;;;;;6138908;22;88409;-86
2023/07/16 01:11:47;;;;;;;1.60;1.20;;;25.90;56.90;;;;;;6139566;22;87602;-86
2023/07/16 01:14:13;;;;;;;1.60;1.13;;;25.90;56.80;;;;;;6140087;22;87707;-86
2023/07/16 01:16:40;;;;;;;1.80;1.30;;;25.90;56.70;;;;;;6111798;22;90984;-86
2023/07/16 01:19:06;;;;;;;1.25;1.15;;;25.90;56.60;;;;;;6138523;22;87987;-86
2023/07/16 01:21:44;;;;;;;1.48;1.27;;;25.90;56.80;;;;;;6139647;22;87559;-86
2023/07/16 01:24:37;;;;;;;2.05;1.45;;;25.90;56.60;;;;;;6138760;22;87313;-86
2023/07/16 01:27:27;;;;;;;1.98;1.30;;;25.90;56.80;;;;;;6138450;22;88748;-86
2023/07/16 01:30:08;;;;;;;2.33;1.80;;;25.90;57.00;;;;;;6140321;22;87981;-86
2023/07/16 01:32:36;;;;;;;2.03;1.40;;;25.90;56.60;;;;;;6112971;22;88449;-85
2023/07/16 01:35:02;;;;;;;1.85;1.10;;;25.80;56.60;;;;;;6138249;22;87368;-86
2023/07/16 01:37:28;;;;;;;1.65;1.50;;;25.90;56.60;;;;;;6138539;22;87580;-86
2023/07/16 01:39:53;;;;;;;1.17;1.00;;;25.80;56.60;;;;;;6112324;22;90327;-86
2023/07/16 01:42:19;;;;;;;1.73;1.30;;;25.80;56.60;;;;;;6112034;22;86933;-86
2023/07/16 01:44:45;;;;;;;1.42;1.20;;;25.80;56.70;;;;;;6139451;22;87206;-86
2023/07/16 01:47:35;;;;;;;1.63;1.15;;;25.80;56.50;;;;;;6139577;22;87358;-86
2023/07/16 01:50:00;;;;;;;2.72;1.10;;;25.80;56.50;;;;;;6109317;22;87708;-85
2023/07/16 01:52:26;;;;;;;1.90;1.15;;;25.80;56.70;;;;;;6139759;22;87458;-86
2023/07/16 01:54:51;;;;;;;1.60;1.33;;;25.80;56.80;;;;;;6139249;22;87387;-85
2023/07/16 01:57:17;;;;;;;2.25;1.10;;;25.80;56.70;;;;;;6111315;22;91435;-86
2023/07/16 01:59:43;;;;;;;2.33;1.10;;;25.80;56.80;;;;;;6137384;22;88321;-86
2023/07/16 02:02:08;;;;;;;2.53;1.27;;;25.80;56.90;;;;;;6139146;22;87636;-86
2023/07/16 02:04:34;;;;;;;2.15;1.25;;;25.80;56.90;;;;;;6137463;22;87336;-86
2023/07/16 02:06:59;;;;;;;1.42;1.20;;;25.80;56.80;;;;;;6137919;22;87566;-86
2023/07/16 02:09:25;;;;;;;1.42;1.23;;;25.80;56.90;;;;;;6111340;22;90148;-86
2023/07/16 02:11:51;;;;;;;1.48;1.27;;;25.80;56.80;;;;;;6111891;22;87438;-86
2023/07/16 02:14:17;;;;;;;3.63;1.35;;;25.70;56.80;;;;;;6139464;22;87355;-86
2023/07/16 02:16:42;;;;;;;2.28;1.48;;;25.70;56.70;;;;;;6111933;22;90631;-86
2023/07/16 02:19:08;;;;;;;2.03;1.33;;;25.70;56.70;;;;;;6138447;22;88013;-86
2023/07/16 02:21:33;;;;;;;1.90;1.20;;;25.70;56.80;;;;;;6109227;22;88328;-86
2023/07/16 02:23:59;;;;;;;2.30;1.33;;;25.70;56.80;;;;;;6111413;22;89098;-86
2023/07/16 02:26:25;;;;;;;1.48;1.20;;;25.70;56.60;;;;;;6138049;22;88694;-86
2023/07/16 02:28:51;;;;;;;1.30;1.17;;;25.70;56.60;;;;;;6137986;22;87237;-86
2023/07/16 02:31:16;;;;;;;2.40;1.60;;;25.70;56.60;;;;;;6138320;22;87338;-86
2023/07/16 02:33:42;;;;;;;1.10;1.00;;;25.70;56.80;;;;;;6138852;22;87467;-86
2023/07/16 02:36:07;;;;;;;1.23;1.13;;;25.70;56.70;;;;;;6139060;22;88339;-86
2023/07/16 02:38:33;;;;;;;2.28;1.30;;;25.70;56.50;;;;;;6112558;22;90561;-86
2023/07/16 02:40:59;;;;;;;1.42;0.95;;;25.70;56.70;;;;;;6138599;22;87222;-86
2023/07/16 02:43:25;;;;;;;1.98;1.13;;;25.70;56.70;;;;;;6138659;22;87818;-86
2023/07/16 02:45:50;;;;;;;1.88;1.27;;;25.70;56.70;;;;;;6110673;22;91463;-86
2023/07/16 02:48:16;;;;;;;1.23;1.13;;;25.70;56.70;;;;;;6111104;22;91355;-85
2023/07/16 02:50:41;;;;;;;1.35;1.08;;;25.70;56.50;;;;;;6139118;22;87630;-85
2023/07/16 02:53:08;;;;;;;2.03;1.52;;;25.70;56.50;;;;;;6140364;22;87639;-85
2023/07/16 02:55:35;;;;;;;1.60;1.30;;;25.70;56.50;;;;;;6138328;22;87953;-85
2023/07/16 02:58:04;;;;;;;1.67;1.00;;;25.70;56.50;;;;;;6138894;22;87683;-85
2023/07/16 03:00:34;;;;;;;2.25;1.13;;;25.70;56.50;;;;;;6112036;22;88043;-85
2023/07/16 03:03:00;;;;;;;2.35;1.20;;;25.60;56.40;;;;;;6138614;22;86374;-86
2023/07/16 03:05:30;;;;;;;1.92;1.30;;;25.70;56.50;;;;;;6140097;22;87917;-85
2023/07/16 03:07:55;;;;;;;1.95;1.33;;;25.70;56.30;;;;;;6111554;22;90314;-86
2023/07/16 03:10:22;;;;;;;1.70;1.20;;;25.60;56.40;;;;;;6111690;22;88393;-85
2023/07/16 03:12:47;;;;;;;1.67;1.17;;;25.60;56.10;;;;;;6111328;22;87922;-86
2023/07/16 03:15:13;;;;;;;1.48;1.10;;;25.60;56.20;;;;;;6137725;22;88194;-86
2023/07/16 03:17:39;;;;;;;3.63;1.38;;;25.60;56.20;;;;;;6138982;22;87954;-85
2023/07/16 03:20:05;;;;;;;2.17;1.00;;;25.60;56.30;;;;;;6111246;22;87254;-86
2023/07/16 03:22:31;;;;;;;1.42;1.00;;;25.60;56.30;;;;;;6111147;22;88005;-86
2023/07/16 03:24:57;;;;;;;2.13;1.13;;;25.60;56.40;;;;;;6111429;22;90554;-86
2023/07/16 03:27:23;;;;;;;2.17;1.23;;;25.60;56.40;;;;;;6139314;22;87433;-85
2023/07/16 03:29:48;;;;;;;1.27;1.17;;;25.60;56.40;;;;;;6137798;22;87839;-86
2023/07/16 03:32:14;;;;;;;1.50;1.20;;;25.60;56.40;;;;;;6139625;22;87991;-85
2023/07/16 03:34:39;;;;;;;0.95;0.90;;;25.60;56.40;;;;;;6109691;22;89914;-86
2023/07/16 03:37:05;;;;;;;1.38;1.00;;;25.60;56.40;;;;;;6111538;22;91335;-86
2023/07/16 03:39:31;;;;;;;2.38;1.10;;;25.60;56.40;;;;;;6138767;22;86950;-86
2023/07/16 03:41:57;;;;;;;2.63;1.25;;;25.60;56.40;;;;;;6138445;22;87336;-86
2023/07/16 03:44:22;;;;;;;2.03;1.30;;;25.60;56.50;;;;;;6140394;22;87514;-86
2023/07/16 03:46:48;;;;;;;2.45;1.15;;;25.60;56.50;;;;;;6138635;22;87251;-85
2023/07/16 03:49:13;;;;;;;1.60;1.40;;;25.60;56.40;;;;;;6112352;22;87592;-85
2023/07/16 03:51:39;;;;;;;1.70;1.10;;;25.60;56.50;;;;;;6138864;22;86878;-85
2023/07/16 03:54:05;;;;;;;1.40;1.17;;;25.60;56.40;;;;;;6139787;22;87496;-86
2023/07/16 03:56:30;;;;;;;1.73;1.23;;;25.60;56.40;;;;;;6139404;22;87661;-86
2023/07/16 03:58:56;;;;;;;1.42;1.30;;;25.60;57.00;;;;;;6139658;22;88618;-86
2023/07/16 04:01:21;;;;;;;1.42;1.25;;;25.60;56.40;;;;;;6139255;22;87363;-85
2023/07/16 04:03:47;;;;;;;2.88;1.30;;;25.50;56.40;;;;;;6138578;22;87859;-86
2023/07/16 04:06:14;;;;;;;2.00;1.30;;;25.60;56.50;;;;;;6140004;22;88194;-86
2023/07/16 04:08:39;;;;;;;1.48;1.10;;;25.60;56.40;;;;;;6140546;22;88018;-85
2023/07/16 04:11:05;;;;;;;1.67;1.25;;;25.60;56.40;;;;;;6139429;22;87555;-86
2023/07/16 04:13:32;;;;;;;1.27;1.13;;;25.60;56.30;;;;;;6139000;22;88738;-85
2023/07/16 04:15:57;;;;;;;2.42;1.52;;;25.50;56.20;;;;;;6139337;22;87791;-86
2023/07/16 04:18:26;;;;;;;1.88;1.23;;;25.60;56.40;;;;;;6140275;22;87335;-85
2023/07/16 04:20:52;;;;;;;1.42;1.20;;;25.60;56.30;;;;;;6140346;22;86998;-86
2023/07/16 04:23:18;;;;;;;1.98;1.10;;;25.60;56.30;;;;;;6139560;22;89538;-86
2023/07/16 04:25:44;;;;;;;1.30;1.13;;;25.50;56.20;;;;;;6139565;22;88265;-86
2023/07/16 04:28:12;;;;;;;2.03;1.25;;;25.60;56.20;;;;;;6139182;22;87800;-84
2023/07/16 04:30:38;;;;;;;1.67;1.00;;;25.50;56.20;;;;;;6124394;22;87619;-85
2023/07/16 04:33:07;;;;;;;2.13;1.30;;;25.60;56.20;;;;;;6138106;22;87526;-86
2023/07/16 04:35:33;;;;;;;;;;;25.60;56.20;;;;;;6141241;22;87578;-86
2023/07/16 04:37:59;;;;;;;1.90;1.30;;;25.60;56.20;;;;;;6141103;22;87600;-86
2023/07/16 04:40:25;;;;;;;2.63;1.35;;;25.60;56.00;;;;;;6112013;22;88178;-86
2023/07/16 04:42:50;;;;;;;1.40;1.20;;;25.60;56.10;;;;;;6139469;22;89796;-86
2023/07/16 04:45:17;;;;;;;1.70;1.20;;;25.60;56.20;;;;;;6138923;22;87849;-86
2023/07/16 04:47:42;;;;;;;1.85;1.40;;;25.60;56.20;;;;;;6111568;22;88781;-86
2023/07/16 04:50:08;;;;;;;2.22;1.40;;;25.60;55.90;;;;;;6112355;22;89701;-85
2023/07/16 04:52:34;;;;;;;2.33;1.38;;;25.60;56.10;;;;;;6123375;22;88209;-85
2023/07/16 04:54:59;;;;;;;2.17;1.35;;;25.60;56.00;;;;;;6140048;22;89032;-85
2023/07/16 04:57:25;;;;;;;1.90;1.17;;;25.70;56.00;;;;;;6112449;22;87284;-86
2023/07/16 04:59:51;;;;;;;3.00;1.40;;;25.70;56.10;;;;;;6139291;22;87560;-86
2023/07/16 05:02:17;;;;;;;1.95;1.13;;;25.70;55.90;;;;;;6113013;22;90769;-85
2023/07/16 05:04:44;;;;;;;2.50;1.20;;;25.80;56.00;;;;;;6112252;22;90299;-86
2023/07/16 05:07:10;;;;;;;1.30;1.00;;;25.80;55.80;;;;;;6139834;22;87374;-86
2023/07/16 05:09:36;;;;;;;1.40;1.17;;;25.80;55.70;;;;;;6098585;22;88190;-85
2023/07/16 05:12:02;;;;;;;1.35;1.20;;;25.80;55.70;;;;;;6111897;22;91254;-85
2023/07/16 05:14:28;;;;;;;1.90;1.33;;;25.80;55.70;;;;;;6113075;22;91527;-85
2023/07/16 05:16:55;;;;;;;1.30;0.98;;;25.80;55.70;;;;;;6139137;22;87410;-85
2023/07/16 05:19:20;;;;;;;1.13;1.02;;;25.90;55.60;;;;;;6139025;22;89120;-85
2023/07/16 05:21:46;;;;;;;2.50;1.45;;;25.90;55.90;;;;;;6139519;22;88385;-85
2023/07/16 05:24:12;;;;;;;1.52;1.27;;;25.90;55.70;;;;;;6137644;22;87648;-85
2023/07/16 05:26:38;;;;;;;1.00;0.90;;;25.90;55.50;;;;;;6111872;22;87078;-86
2023/07/16 05:29:04;;;;;;;1.42;1.10;;;25.90;55.50;;;;;;6138290;22;86451;-85
2023/07/16 05:31:29;;;;;;;1.63;1.25;;;26.00;55.40;;;;;;6122570;22;88246;-86
2023/07/16 05:33:55;;;;;;;1.98;1.48;;;26.00;55.50;;;;;;6138604;22;87553;-86
2023/07/16 05:36:21;;;;;;;1.95;1.45;;;26.00;55.50;;;;;;6138274;22;88978;-85
2023/07/16 05:38:46;;;;;;;2.10;1.25;;;26.00;55.50;;;;;;6138899;22;87408;-86
2023/07/16 05:41:12;;;;;;;1.85;1.20;;;26.00;55.40;;;;;;6139654;22;87879;-87
2023/07/16 05:43:37;;;;;;;4.75;2.13;;;26.00;55.20;;;;;;6139404;22;91889;-86
2023/07/16 05:46:05;;;;;;;8.07;2.85;;;25.90;51.90;;;;;;6112148;22;87742;-87
2023/07/16 05:48:31;;;;;;;6.70;2.70;;;25.90;51.00;;;;;;6111681;22;89663;-85
2023/07/16 05:50:56;;;;;;;6.40;2.80;;;25.80;50.90;;;;;;6136502;22;87809;-85
2023/07/16 05:53:22;;;;;;;7.95;3.58;;;25.80;50.70;;;;;;6111356;22;90125;-85
2023/07/16 05:55:49;;;;;;;8.57;3.00;;;25.70;49.10;;;;;;6137680;22;87967;-86
2023/07/16 05:58:15;;;;;;;9.73;3.65;;;25.70;49.10;;;;;;6137373;22;87482;-84
2023/07/16 06:00:41;;;;;;;8.40;4.35;;;25.70;48.50;;;;;;6137765;22;88355;-84
2023/07/16 06:03:06;;;;;;;8.57;3.72;;;25.60;47.70;;;;;;6137962;22;89383;-84
2023/07/16 06:05:34;;;;;;;7.78;3.67;;;25.60;48.00;;;;;;6112595;22;87727;-87
2023/07/16 06:08:00;;;;;;;11.98;4.90;;;25.60;47.80;;;;;;6138314;22;87163;-87
2023/07/16 06:10:25;;;;;;;10.27;3.70;;;25.50;47.00;;;;;;6141073;22;87746;-90
2023/07/16 06:12:51;;;;;;;6.32;3.72;;;25.50;46.80;;;;;;6143086;22;87476;-88
2023/07/16 06:15:17;;;;;;;7.95;4.22;;;25.50;47.10;;;;;;6116702;22;87551;-91
2023/07/16 06:17:42;;;;;;;9.40;4.43;;;25.50;47.10;;;;;;6121383;22;88175;-91
2023/07/16 06:20:09;;;;;;;9.82;3.97;;;25.40;46.70;;;;;;6121470;22;94065;-90
2023/07/16 06:22:34;;;;;;;8.52;4.28;;;25.40;46.90;;;;;;6117956;22;91121;-91
2023/07/16 06:25:00;;;;;;;13.43;4.60;;;25.40;46.40;;;;;;6142822;22;88386;-90
2023/07/16 06:27:26;;;;;;;9.27;4.35;;;25.40;46.30;;;;;;6142211;22;87458;-91
2023/07/16 06:29:52;;;;;;;11.10;4.75;;;25.40;46.10;;;;;;6116237;22;88377;-91
2023/07/16 06:32:18;;;;;;;9.02;4.53;;;25.30;46.10;;;;;;6117236;22;90499;-89
2023/07/16 06:34:44;;;;;;;10.65;4.93;;;25.30;45.90;;;;;;6115553;22;87362;-89
2023/07/16 06:37:09;;;;;;;11.48;5.00;;;25.30;46.00;;;;;;6116807;22;89430;-89
2023/07/16 06:39:35;;;;;;;11.00;5.00;;;25.30;45.60;;;;;;6116026;22;90556;-89
2023/07/16 06:42:01;;;;;;;14.07;4.90;;;25.30;46.10;;;;;;6116876;22;90096;-91
2023/07/16 06:44:26;;;;;;;11.25;4.90;;;25.30;46.40;;;;;;6116680;22;87358;-91
2023/07/16 06:46:52;;;;;;;10.85;4.53;;;25.40;45.80;;;;;;6116298;22;89712;-90
2023/07/16 06:49:18;;;;;;;7.93;4.63;;;25.30;45.40;;;;;;6115918;22;91236;-92
2023/07/16 06:51:44;;;;;;;9.40;4.78;;;25.30;45.80;;;;;;6121566;22;91384;-90
2023/07/16 06:54:09;;;;;;;8.07;4.53;;;25.20;45.60;;;;;;6147606;22;87273;-92
2023/07/16 06:56:35;;;;;;;8.23;4.60;;;25.20;45.90;;;;;;6123164;22;87979;-94
2023/07/16 06:59:01;;;;;;;9.95;4.78;;;25.20;45.30;;;;;;6125588;22;90186;-90
2023/07/16 07:01:27;;;;;;;8.73;4.30;;;25.20;46.00;;;;;;6119448;22;89249;-88
2023/07/16 07:03:53;;;;;;;19.52;6.97;;;25.20;45.80;;;;;;6114639;22;86898;-89
2023/07/16 07:06:21;;;;;;;25.70;8.10;;;25.20;45.80;;;;;;6115514;22;88548;-88
2023/07/16 07:08:47;;;;;;;27.00;8.75;;;25.20;46.10;;;;;;6115408;22;90690;-89
2023/07/16 07:11:12;;;;;;;25.70;8.30;;;25.20;45.80;;;;;;6116433;22;90221;-91
2023/07/16 07:13:38;;;;;;;21.08;7.47;;;25.20;45.80;;;;;;6128183;22;88342;-88
2023/07/16 07:16:04;;;;;;;20.52;7.63;;;25.20;46.10;;;;;;6114242;22;89311;-89
2023/07/16 07:18:29;;;;;;;23.23;7.57;;;25.30;46.20;;;;;;6114980;22;90793;-88
2023/07/16 07:20:55;;;;;;;14.07;6.65;;;25.30;46.50;;;;;;6114422;22;89286;-91
2023/07/16 07:23:21;;;;;;;12.35;6.10;;;25.20;46.20;;;;;;6095221;22;88288;-91
2023/07/16 07:25:51;;;;;;;15.40;6.75;;;25.20;46.70;;;;;;6143404;22;87627;-88
2023/07/16 07:28:16;;;;;;;13.60;6.28;;;25.20;46.70;;;;;;6114670;22;93742;-90
2023/07/16 07:30:42;;;;;;;14.90;5.93;;;25.20;47.50;;;;;;6114865;22;90656;-90
2023/07/16 07:33:08;;;;;;;10.48;5.38;;;25.20;46.20;;;;;;6143111;22;87265;-88
2023/07/16 07:35:33;;;;;;;12.75;5.00;;;25.20;46.30;;;;;;6111174;22;89235;-88
2023/07/16 07:37:59;;;;;;;11.48;5.57;;;25.20;46.10;;;;;;6111470;22;91217;-88
2023/07/16 07:40:25;;;;;;;14.32;5.80;;;25.20;46.60;;;;;;6141422;22;89256;-89
2023/07/16 07:42:51;;;;;;;12.55;6.18;;;25.10;45.80;;;;;;6112893;22;87507;-87
2023/07/16 07:45:16;;;;;;;12.25;4.93;;;25.10;46.10;;;;;;6113363;22;89382;-89
2023/07/16 07:47:42;;;;;;;8.93;4.93;;;25.20;46.40;;;;;;6139707;22;88060;-88
2023/07/16 07:50:08;;;;;;;10.07;4.85;;;25.30;46.50;;;;;;6112071;22;89027;-88
2023/07/16 07:52:34;;;;;;;8.93;5.15;;;25.20;45.90;;;;;;6146317;22;87058;-88
2023/07/16 07:54:59;;;;;;;9.77;4.97;;;25.30;46.10;;;;;;6114053;22;89356;-88
2023/07/16 07:57:25;;;;;;;10.32;5.15;;;25.40;46.10;;;;;;6113395;22;90093;-89
2023/07/16 07:59:56;;;;;;;11.27;4.57;;;25.40;46.10;;;;;;6139157;22;87889;-88
2023/07/16 08:02:23;;;;;;;8.40;4.22;;;25.50;46.20;;;;;;6140137;22;88753;-86
2023/07/16 08:04:53;;;;;;;7.88;4.03;;;25.50;46.00;;;;;;6114026;22;89844;-87
2023/07/16 08:07:18;;;;;;;8.00;4.75;;;25.50;45.60;;;;;;6114343;22;91695;-88
2023/07/16 08:09:46;;;;;;;7.55;4.53;;;25.50;45.60;;;;;;6116024;22;89320;-89
2023/07/16 08:12:11;;;;;;;9.55;4.93;;;25.50;45.70;;;;;;6115943;22;87501;-89
2023/07/16 08:14:37;;;;;;;7.68;4.38;;;25.60;45.80;;;;;;6142006;22;87927;-89
2023/07/16 08:17:03;;;;;;;10.68;4.22;;;25.60;45.70;;;;;;6115220;22;90259;-90
2023/07/16 08:19:28;;;;;;;8.80;4.60;;;25.60;45.70;;;;;;6143222;22;88420;-88
2023/07/16 08:21:54;;;;;;;10.20;4.22;;;25.60;46.00;;;;;;6115232;22;86933;-88
2023/07/16 08:24:20;;;;;;;7.82;4.38;;;25.60;45.90;;;;;;6115213;22;89385;-89
2023/07/16 08:26:45;;;;;;;7.82;4.50;;;25.70;45.80;;;;;;6139433;22;88746;-90
2023/07/16 08:29:11;;;;;;;11.13;4.43;;;25.70;45.40;;;;;;6114006;22;91340;-89
2023/07/16 08:31:36;;;;;;;12.40;4.20;;;25.60;45.50;;;;;;6115371;22;87655;-89
2023/07/16 08:34:02;;;;;;;8.43;4.57;;;25.60;44.80;;;;;;6113754;22;89692;-90
2023/07/16 08:36:28;;;;;;;8.13;4.05;;;25.60;44.70;;;;;;6141675;22;87984;-90
2023/07/16 08:38:53;;;;;;;7.55;3.88;;;25.60;44.60;;;;;;6117294;22;90261;-90
2023/07/16 08:41:19;;;;;;;8.25;4.13;;;25.60;44.60;;;;;;6116206;22;92975;-89
2023/07/16 08:43:50;;;;;;;8.15;4.15;;;25.70;44.80;;;;;;6142509;22;86353;-87
2023/07/16 08:46:16;;;;;;;7.45;4.80;;;25.70;44.90;;;;;;6141211;22;95842;-90
2023/07/16 08:48:42;;;;;;;7.32;4.15;;;25.70;44.80;;;;;;6112637;22;89162;-87
2023/07/16 08:51:10;;;;;;;6.43;4.15;;;25.70;45.20;;;;;;6113831;22;88344;-91
2023/07/16 08:53:36;;;;;;;6.45;4.20;;;25.70;45.60;;;;;;6118384;22;89310;-88
2023/07/16 08:56:05;;;;;;;6.68;4.13;;;25.70;45.70;;;;;;6100710;22;90573;-89
2023/07/16 08:58:30;;;;;;;11.27;4.47;;;25.70;46.00;;;;;;6115219;22;88984;-86
2023/07/16 09:00:56;;;;;;;6.80;4.03;;;25.80;46.10;;;;;;6111242;22;87523;-88
2023/07/16 09:03:22;;;;;;;7.80;3.92;;;25.80;46.30;;;;;;6138803;22;87154;-85
2023/07/16 09:05:48;;;;;;;6.35;4.22;;;25.90;46.20;;;;;;6138766;22;87400;-86
2023/07/16 09:08:14;;;;;;;7.57;4.20;;;25.90;46.30;;;;;;6138629;22;87074;-86
2023/07/16 09:10:43;;;;;;;9.82;4.72;;;25.90;46.50;;;;;;6139553;22;87589;-86
2023/07/16 09:13:09;;;;;;;;;;;25.90;46.60;;;;;;6111024;22;89476;-87
2023/07/16 09:15:34;;;;;;;7.40;3.83;;;25.90;46.50;;;;;;6112679;22;90642;-87
2023/07/16 09:18:00;;;;;;;6.93;4.25;;;25.90;46.50;;;;;;6139181;22;89394;-88
2023/07/16 09:20:30;;;;;;;6.80;4.57;;;25.90;46.90;;;;;;6138843;22;87740;-87
2023/07/16 09:22:57;;;;;;;12.50;4.25;;;25.90;46.90;;;;;;6110084;22;89050;-87
2023/07/16 09:25:29;;;;;;;5.63;4.07;;;26.00;47.00;;;;;;6139666;22;88253;-87
2023/07/16 09:27:58;;;;;;;8.05;4.68;;;26.00;47.10;;;;;;6138617;22;87884;-88
2023/07/16 09:30:23;;;;;;;7.50;4.60;;;26.00;47.70;;;;;;6125150;22;87608;-87
2023/07/16 09:32:49;;;;;;;8.27;4.35;;;26.00;47.20;;;;;;6113638;22;89532;-89
2023/07/16 09:35:16;;;;;;;5.88;3.63;;;26.00;46.90;;;;;;6112255;22;90309;-87
2023/07/16 09:37:43;;;;;;;9.18;3.50;;;25.90;45.80;;;;;;6113913;22;89498;-89
2023/07/16 09:40:11;;;;;;;6.70;3.38;;;25.80;45.50;;;;;;6111255;22;88505;-88
2023/07/16 09:42:38;;;;;;;5.75;3.03;;;25.80;45.70;;;;;;6139820;22;87520;-87
2023/07/16 09:45:07;;;;;;;29.75;8.00;;;25.80;45.00;;;;;;6139352;22;87560;-90
2023/07/16 09:47:32;;;;;;;95.30;24.88;;;25.70;45.20;;;;;;6112250;22;90820;-88
2023/07/16 09:49:58;;;;;;;67.72;19.55;;;25.70;45.40;;;;;;6110824;22;87453;-89
2023/07/16 09:52:27;;;;;;;61.60;17.40;;;25.80;45.10;;;;;;6116552;22;89713;-86
2023/07/16 09:54:55;;;;;;;44.90;13.45;;;25.80;45.60;;;;;;6138286;22;87517;-87
2023/07/16 09:57:22;;;;;;;61.90;16.00;;;25.70;45.00;;;;;;6138620;22;87909;-87
2023/07/16 09:59:51;;;;;;;34.70;11.38;;;25.70;45.00;;;;;;6110826;22;87464;-88
2023/07/16 10:02:17;;;;;;;32.33;9.50;;;25.70;45.20;;;;;;6110284;22;90016;-87
2023/07/16 10:04:43;;;;;;;32.92;11.23;;;25.80;45.20;;;;;;6138234;22;88746;-88
2023/07/16 10:07:21;;;;;;;21.45;8.05;;;25.70;45.70;;;;;;6135049;22;92368;-87
2023/07/16 10:09:57;;;;;;;16.33;6.20;;;25.80;46.00;;;;;;6111490;22;87224;-87
2023/07/16 10:12:24;;;;;;;22.65;5.72;;;25.80;45.00;;;;;;6137919;22;87144;-87
2023/07/16 10:14:57;;;;;;;10.50;4.07;;;25.70;44.90;;;;;;6137436;22;90097;-87
2023/07/16 10:17:25;;;;;;;13.93;4.28;;;25.70;44.00;;;;;;6110291;22;89082;-89
2023/07/16 10:19:52;;;;;;;8.15;3.58;;;25.70;43.90;;;;;;6112134;22;87272;-87
2023/07/16 10:22:43;;;;;;;12.70;3.83;;;25.70;44.40;;;;;;6113476;22;89283;-87
2023/07/16 10:25:21;;;;;;;12.10;3.90;;;25.70;44.00;;;;;;6139039;22;87555;-87
2023/07/16 10:27:49;;;;;;;10.10;3.70;;;25.70;44.50;;;;;;6111910;22;90312;-89
2023/07/16 10:30:16;;;;;;;6.88;3.00;;;25.70;44.50;;;;;;6139464;22;88065;-89
2023/07/16 10:32:42;;;;;;;6.80;3.28;;;25.70;44.30;;;;;;6112327;22;89466;-89
2023/07/16 10:35:09;;;;;;;7.32;3.28;;;25.70;44.30;;;;;;6097606;22;90358;-89
2023/07/16 10:37:35;;;;;;;5.00;2.83;;;25.70;44.20;;;;;;6114247;22;89849;-89
2023/07/16 10:40:05;;;;;;;5.93;2.88;;;25.60;43.90;;;;;;6110533;22;87779;-89
2023/07/16 10:42:32;;;;;;;7.57;3.22;;;25.60;43.70;;;;;;6113223;22;88130;-89
2023/07/16 10:44:59;;;;;;;6.55;3.38;;;25.60;43.80;;;;;;6114363;22;90695;-89
2023/07/16 10:47:36;;;;;;;7.43;2.85;;;25.60;43.90;;;;;;6114041;22;90123;-88
2023/07/16 10:50:09;;;;;;;4.65;2.60;;;25.60;43.80;;;;;;6112015;22;87470;-87
2023/07/16 10:52:43;;;;;;;5.28;3.00;;;25.70;44.00;;;;;;6110618;22;89419;-88
2023/07/16 10:55:09;;;;;;;5.13;3.30;;;25.70;44.40;;;;;;6120863;22;89411;-87
2023/07/16 10:57:35;;;;;;;8.32;2.88;;;25.70;44.40;;;;;;6094705;22;91310;-87
2023/07/16 11:00:49;;;;;;;;;;;;;;;;;;;;;
2023/07/16 11:03:46;;;;;;;3.95;2.50;;;25.70;44.60;;;;;;6086668;22;88062;-87
2023/07/16 11:06:12;;;;;;;6.90;2.90;;;25.70;44.40;;;;;;6101764;22;90520;-86
2023/07/16 11:08:38;;;;;;;4.65;2.42;;;25.70;44.30;;;;;;6137647;22;87839;-87
2023/07/16 11:11:03;;;;;;;9.82;3.80;;;25.70;43.80;;;;;;6125627;22;87538;-87
2023/07/16 11:13:31;;;;;;;6.75;2.65;;;25.70;44.20;;;;;;6139521;22;87293;-86
2023/07/16 11:16:06;;;;;;;5.60;3.00;;;25.70;44.10;;;;;;6133747;22;88000;-87
2023/07/16 11:18:31;;;;;;;6.65;2.78;;;25.70;44.30;;;;;;6106369;22;90394;-90
2023/07/16 11:20:58;;;;;;;8.23;2.75;;;25.70;44.10;;;;;;6134797;22;89210;-92
2023/07/16 11:23:26;;;;;;;4.15;2.55;;;25.70;44.30;;;;;;6108680;22;87888;-92
2023/07/16 11:25:52;;;;;;;6.68;3.03;;;25.70;44.50;;;;;;6136520;22;88736;-92
2023/07/16 11:28:18;;;;;;;5.38;2.85;;;25.70;44.50;;;;;;6108858;22;90221;-91
2023/07/16 11:30:43;;;;;;;5.85;2.70;;;25.70;43.70;;;;;;6137589;22;87437;-87
2023/07/16 11:33:12;;;;;;;5.50;2.67;;;25.60;43.70;;;;;;6116267;22;87268;-88
2023/07/16 11:35:39;;;;;;;5.15;2.67;;;25.60;43.60;;;;;;6134975;22;88263;-88
2023/07/16 11:38:08;;;;;;;7.32;2.72;;;25.60;43.20;;;;;;6108656;22;90161;-90
2023/07/16 11:40:35;;;;;;;4.03;2.30;;;25.60;43.80;;;;;;6110352;22;87547;-87
2023/07/16 11:43:12;;;;;;;6.32;2.40;;;25.60;43.10;;;;;;6136138;22;87864;-89
2023/07/16 11:45:38;;;;;;;5.22;2.83;;;25.70;43.50;;;;;;6107575;22;91661;-87
2023/07/16 11:48:04;;;;;;;12.45;5.07;;;25.70;43.50;;;;;;6137499;22;88816;-88
2023/07/16 11:50:31;;;;;;;7.18;4.00;;;25.70;43.60;;;;;;6112182;22;94137;-87
2023/07/16 11:53:00;;;;;;;11.35;3.05;;;25.70;43.30;;;;;;6111305;22;89735;-87
2023/07/16 11:55:26;;;;;;;6.60;3.38;;;25.70;43.50;;;;;;6113496;22;90923;-89
2023/07/16 11:57:52;;;;;;;5.78;3.33;;;25.70;43.70;;;;;;6112239;22;89552;-88
2023/07/16 12:00:18;;;;;;;52.67;18.88;;;25.70;43.70;;;;;;6139363;22;87435;-88
2023/07/16 12:02:51;;;;;;;29.85;11.98;;;25.70;43.70;;;;;;6140756;22;86842;-88
2023/07/16 12:05:18;;;;;;;16.98;7.18;;;25.80;43.90;;;;;;6113185;22;90668;-90
2023/07/16 12:07:43;;;;;;;14.10;7.18;;;25.90;43.10;;;;;;6113210;22;89551;-86
2023/07/16 12:10:09;;;;;;;10.93;5.43;;;26.00;42.90;;;;;;6139033;22;93161;-87
2023/07/16 12:12:38;;;;;;;12.20;5.40;;;26.00;42.80;;;;;;6139835;22;87388;-88
2023/07/16 12:15:07;;;;;;;8.50;4.95;;;26.00;43.00;;;;;;6140530;22;87004;-85
2023/07/16 12:17:33;;;;;;;8.10;3.88;;;26.10;43.20;;;;;;6140338;22;88211;-85
2023/07/16 12:19:58;;;;;;;6.50;3.33;;;26.10;43.00;;;;;;6141035;22;87729;-88
2023/07/16 12:22:24;;;;;;;6.72;3.05;;;26.10;42.50;;;;;;6140900;22;87364;-87
2023/07/16 12:24:50;;;;;;;6.00;3.13;;;26.00;42.50;;;;;;6139751;22;87412;-87
2023/07/16 12:27:16;;;;;;;5.55;3.08;;;26.10;42.70;;;;;;6114183;22;90210;-86
2023/07/16 12:29:42;;;;;;;6.07;3.15;;;26.10;42.80;;;;;;6141106;22;87798;-90
2023/07/16 12:32:08;;;;;;;6.20;2.88;;;26.00;42.80;;;;;;6115288;22;89338;-88
2023/07/16 12:34:34;;;;;;;6.55;2.97;;;26.00;43.20;;;;;;6141090;22;88518;-88
2023/07/16 12:36:59;;;;;;;7.32;3.17;;;26.00;42.90;;;;;;6140829;22;88111;-85
2023/07/16 12:39:25;;;;;;;4.25;3.10;;;26.00;43.00;;;;;;6138858;22;87324;-86
2023/07/16 12:41:51;;;;;;;4.72;3.00;;;26.00;43.00;;;;;;6143667;22;87380;-92
2023/07/16 12:44:16;;;;;;;5.35;2.85;;;26.00;42.90;;;;;;6145530;22;87656;-90